Time;durP1;ratioP1;P1;durP2;ratioP2;P2;SDS_P1;SDS_P2;PMS_P1;PMS_P2;Temp;Humidity;BMP_temperature;BMP_pressure;BME280_temperature;BME280_humidity;BME280_pressure;Samples;Min_cycle;Max_cycle;Signal;HPM_P1;HPM_P2
2023/04/28 00:00:51;;;;;;;7.83;6.90;;;2.60;1.00;;;;;;5071476;28;20408;-65
2023/04/28 00:03:16;;;;;;;10.60;7.93;;;2.60;1.00;;;;;;5065837;28;20451;-67
2023/04/28 00:05:42;;;;;;;7.93;6.87;;;2.60;1.00;;;;;;5064351;28;20470;-66
2023/04/28 00:08:08;;;;;;;10.10;6.73;;;2.50;1.00;;;;;;5054585;28;20249;-66
2023/04/28 00:10:33;;;;;;;9.57;6.80;;;2.50;1.00;;;;;;5052977;28;20243;-66
2023/04/28 00:13:00;;;;;;;10.57;6.97;;;2.50;1.00;;;;;;5063348;28;20202;-67
2023/04/28 00:15:25;;;;;;;7.57;6.87;;;2.50;1.00;;;;;;5058561;28;20182;-66
2023/04/28 00:17:52;;;;;;;8.47;7.67;;;2.50;1.00;;;;;;5054571;28;20432;-65
2023/04/28 00:20:17;;;;;;;9.00;6.73;;;2.40;1.00;;;;;;5079995;28;20179;-68
2023/04/28 00:22:43;;;;;;;9.00;7.20;;;2.40;1.00;;;;;;5055963;28;20817;-65
2023/04/28 00:25:11;;;;;;;11.60;7.80;;;2.40;1.00;;;;;;5071010;28;20177;-67
2023/04/28 00:27:37;;;;;;;10.13;7.97;;;2.40;1.00;;;;;;5051494;28;20509;-66
2023/04/28 00:30:03;;;;;;;7.43;6.47;;;2.40;1.00;;;;;;5053745;28;20435;-65
2023/04/28 00:32:29;;;;;;;8.47;7.53;;;2.30;1.00;;;;;;5065679;28;20696;-67
2023/04/28 00:34:56;;;;;;;9.00;7.27;;;2.40;1.00;;;;;;5056906;28;20428;-67
2023/04/28 00:37:22;;;;;;;11.30;7.60;;;2.30;1.00;;;;;;5063612;28;20262;-68
2023/04/28 00:39:48;;;;;;;9.10;7.13;;;2.40;1.00;;;;;;5062817;28;20864;-66
2023/04/28 00:42:14;;;;;;;8.10;7.07;;;2.30;1.00;;;;;;5075031;28;20209;-66
2023/04/28 00:44:40;;;;;;;8.27;6.93;;;2.30;1.00;;;;;;5068952;28;20296;-66
2023/04/28 00:47:08;;;;;;;13.43;6.70;;;2.40;1.00;;;;;;5065465;28;20417;-66
2023/04/28 00:49:35;;;;;;;9.20;7.13;;;2.30;1.00;;;;;;5053287;28;20894;-67
2023/04/28 00:52:05;;;;;;;11.97;6.30;;;2.30;1.00;;;;;;5056029;28;20516;-68
2023/04/28 00:54:34;;;;;;;7.73;6.97;;;2.40;1.00;;;;;;5055967;28;20402;-67
2023/04/28 00:57:04;;;;;;;8.90;7.30;;;2.30;1.00;;;;;;5070486;28;20435;-67
2023/04/28 00:59:30;;;;;;;7.33;6.40;;;2.30;1.00;;;;;;5076504;28;20434;-68
2023/04/28 01:01:56;;;;;;;7.47;6.77;;;2.30;1.00;;;;;;5078859;28;20973;-65
2023/04/28 01:04:22;;;;;;;7.50;6.80;;;2.30;1.00;;;;;;5096606;28;20419;-68
2023/04/28 01:06:52;;;;;;;7.60;6.30;;;2.30;1.00;;;;;;5079415;28;20931;-68
2023/04/28 01:09:18;;;;;;;6.90;5.73;;;2.30;1.00;;;;;;5075510;28;20479;-66
2023/04/28 01:11:44;;;;;;;7.13;5.90;;;2.20;1.00;;;;;;5062366;28;20941;-66
2023/04/28 01:14:09;;;;;;;6.80;5.50;;;2.20;1.00;;;;;;5069723;28;20210;-65
2023/04/28 01:16:37;;;;;;;7.10;6.40;;;2.20;1.00;;;;;;5075806;28;20420;-68
2023/04/28 01:19:06;;;;;;;6.40;5.80;;;2.20;1.00;;;;;;5076059;28;20328;-66
2023/04/28 01:21:33;;;;;;;5.97;5.20;;;2.20;1.00;;;;;;5074362;28;20932;-67
2023/04/28 01:23:59;;;;;;;9.13;6.40;;;2.10;1.00;;;;;;5075633;28;20529;-65
2023/04/28 01:26:25;;;;;;;10.40;6.50;;;2.10;1.00;;;;;;5070615;28;20472;-65
2023/04/28 01:28:51;;;;;;;9.93;6.07;;;2.10;1.00;;;;;;5056555;28;20457;-67
2023/04/28 01:31:16;;;;;;;9.00;6.93;;;2.10;1.00;;;;;;5070375;28;20468;-67
2023/04/28 01:33:42;;;;;;;11.20;6.20;;;2.10;1.00;;;;;;5062349;28;20283;-67
2023/04/28 01:36:08;;;;;;;7.30;6.60;;;2.10;1.00;;;;;;5067954;28;20204;-65
2023/04/28 01:38:34;;;;;;;7.53;6.60;;;2.10;1.00;;;;;;5069510;28;20178;-68
2023/04/28 01:41:02;;;;;;;7.30;6.50;;;2.10;1.00;;;;;;5074932;28;20812;-66
2023/04/28 01:43:28;;;;;;;11.10;7.20;;;2.10;1.00;;;;;;5057845;28;20221;-68
2023/04/28 01:45:54;;;;;;;7.03;6.30;;;2.10;1.00;;;;;;5065255;28;20442;-67
2023/04/28 01:48:19;;;;;;;9.13;6.93;;;2.10;1.00;;;;;;5089939;28;20431;-66
2023/04/28 01:50:45;;;;;;;11.40;7.57;;;2.00;1.00;;;;;;5095064;28;20509;-66
2023/04/28 01:53:11;;;;;;;9.80;7.07;;;2.00;1.00;;;;;;5064779;28;20751;-65
2023/04/28 01:55:37;;;;;;;8.10;6.87;;;2.10;1.00;;;;;;5071896;28;20539;-67
2023/04/28 01:58:03;;;;;;;14.53;7.40;;;2.00;1.00;;;;;;5060337;28;20659;-67
2023/04/28 02:00:29;;;;;;;7.63;6.90;;;2.00;1.00;;;;;;5064304;28;20433;-67
2023/04/28 02:02:54;;;;;;;9.13;5.60;;;2.00;1.00;;;;;;5064510;28;20251;-66
2023/04/28 02:05:20;;;;;;;11.00;7.50;;;2.00;1.00;;;;;;5071860;28;20661;-68
2023/04/28 02:07:46;;;;;;;6.33;5.70;;;2.00;1.00;;;;;;5054443;28;20183;-67
2023/04/28 02:10:12;;;;;;;7.13;6.30;;;2.00;1.00;;;;;;5054109;28;20178;-66
2023/04/28 02:12:37;;;;;;;8.53;6.77;;;1.90;1.00;;;;;;5055412;28;20246;-66
2023/04/28 02:15:04;;;;;;;6.73;5.97;;;2.00;1.00;;;;;;5061877;28;20435;-68
2023/04/28 02:17:30;;;;;;;7.00;5.80;;;1.90;1.00;;;;;;5070045;28;20921;-68
2023/04/28 02:19:56;;;;;;;9.07;7.00;;;2.00;1.00;;;;;;5069146;28;20816;-65
2023/04/28 02:22:22;;;;;;;7.77;7.00;;;2.00;1.00;;;;;;5081362;28;20996;-66
2023/04/28 02:24:48;;;;;;;8.00;6.50;;;2.00;1.00;;;;;;5071473;28;20464;-65
2023/04/28 02:27:14;;;;;;;9.53;5.63;;;2.00;1.00;;;;;;5061156;28;20778;-65
2023/04/28 02:29:39;;;;;;;8.50;7.00;;;1.90;1.00;;;;;;5049232;28;20437;-66
2023/04/28 02:32:05;;;;;;;6.13;5.57;;;1.90;1.00;;;;;;5053152;28;20210;-68
2023/04/28 02:34:31;;;;;;;9.50;6.63;;;1.90;1.00;;;;;;5058906;28;20189;-68
2023/04/28 02:36:57;;;;;;;9.37;8.47;;;1.90;1.00;;;;;;5063554;28;20432;-67
2023/04/28 02:39:25;;;;;;;7.27;6.43;;;1.90;1.00;;;;;;5067717;28;20179;-66
2023/04/28 02:41:54;;;;;;;9.43;7.20;;;1.90;1.00;;;;;;5053277;28;20183;-66
2023/04/28 02:44:20;;;;;;;8.00;7.20;;;2.00;1.00;;;;;;5070090;28;20485;-66
2023/04/28 02:46:46;;;;;;;6.50;5.73;;;2.00;1.00;;;;;;5064225;28;20444;-65
2023/04/28 02:49:12;;;;;;;7.40;6.30;;;2.00;1.00;;;;;;5062693;28;20437;-65
2023/04/28 02:51:38;;;;;;;8.73;6.80;;;2.00;1.00;;;;;;5085401;28;20241;-67
2023/04/28 02:54:04;;;;;;;9.50;6.63;;;2.00;1.00;;;;;;5066603;28;20440;-68
2023/04/28 02:56:30;;;;;;;8.40;6.33;;;2.00;1.00;;;;;;5073193;28;20416;-65
2023/04/28 02:58:56;;;;;;;8.50;6.90;;;2.00;1.00;;;;;;5074095;28;20174;-67
2023/04/28 03:01:22;;;;;;;8.60;6.33;;;2.00;1.00;;;;;;5072754;28;20999;-65
2023/04/28 03:03:48;;;;;;;6.90;6.17;;;2.00;1.00;;;;;;5073941;28;20662;-68
2023/04/28 03:06:13;;;;;;;7.77;5.43;;;2.00;1.00;;;;;;5072628;28;20435;-67
2023/04/28 03:08:39;;;;;;;9.80;7.40;;;1.90;1.00;;;;;;5072400;28;20523;-66
2023/04/28 03:11:05;;;;;;;7.60;6.73;;;2.00;1.00;;;;;;5072948;28;20197;-67
2023/04/28 03:13:31;;;;;;;9.60;6.70;;;1.90;1.00;;;;;;5071699;28;20202;-65
2023/04/28 03:15:56;;;;;;;10.17;6.27;;;1.90;1.00;;;;;;5073605;28;20178;-66
2023/04/28 03:18:22;;;;;;;8.40;6.87;;;2.00;1.00;;;;;;5072893;28;20467;-66
2023/04/28 03:20:48;;;;;;;8.57;6.60;;;2.00;1.00;;;;;;5072318;28;20182;-67
2023/04/28 03:23:14;;;;;;;7.33;6.50;;;2.00;1.00;;;;;;5073515;28;20424;-66
2023/04/28 03:25:40;;;;;;;17.07;11.73;;;2.00;1.00;;;;;;5065307;28;20413;-67
2023/04/28 03:28:06;;;;;;;18.23;9.97;;;2.00;1.00;;;;;;5065699;28;20640;-68
2023/04/28 03:30:31;;;;;;;15.73;10.97;;;2.00;1.00;;;;;;5069831;28;20521;-67
2023/04/28 03:32:57;;;;;;;12.57;8.50;;;2.10;1.00;;;;;;5066675;28;20321;-66
2023/04/28 03:35:23;;;;;;;10.43;7.97;;;2.00;1.00;;;;;;5061003;28;20171;-66
2023/04/28 03:37:48;;;;;;;12.70;9.20;;;2.00;1.00;;;;;;5054548;28;20175;-68
2023/04/28 03:40:15;;;;;;;12.20;7.53;;;2.00;1.00;;;;;;5058473;28;20182;-67
2023/04/28 03:42:40;;;;;;;7.57;6.60;;;2.00;1.00;;;;;;5068613;28;20201;-65
2023/04/28 03:45:07;;;;;;;8.37;6.77;;;2.00;1.00;;;;;;5050540;28;20429;-65
2023/04/28 03:47:33;;;;;;;7.17;6.47;;;2.00;1.00;;;;;;5066773;28;20347;-65
2023/04/28 03:49:58;;;;;;;12.67;7.97;;;2.00;1.00;;;;;;5063737;28;20429;-67
2023/04/28 03:52:26;;;;;;;15.13;9.70;;;2.00;1.00;;;;;;5052596;28;20211;-65
2023/04/28 03:54:52;;;;;;;16.50;9.03;;;2.00;1.00;;;;;;5060375;28;20193;-68
2023/04/28 03:57:17;;;;;;;13.77;9.73;;;2.10;1.00;;;;;;5061533;28;20461;-68
2023/04/28 03:59:43;;;;;;;13.77;9.53;;;2.10;1.00;;;;;;5062396;28;20935;-68
2023/04/28 04:02:11;;;;;;;12.60;9.47;;;2.20;1.00;;;;;;5063790;28;20194;-66
2023/04/28 04:04:37;;;;;;;13.00;9.83;;;2.20;1.00;;;;;;5072414;28;20193;-65
2023/04/28 04:07:03;;;;;;;11.93;8.90;;;2.20;1.00;;;;;;5068312;28;20439;-68
2023/04/28 04:09:31;;;;;;;13.20;9.80;;;2.30;1.00;;;;;;5053001;28;20532;-66
2023/04/28 04:11:58;;;;;;;16.10;9.43;;;2.30;1.00;;;;;;5051658;28;20464;-67
2023/04/28 04:14:23;;;;;;;13.10;9.70;;;2.40;1.70;;;;;;5051830;28;20421;-67
2023/04/28 04:16:49;;;;;;;10.03;8.90;;;2.40;4.50;;;;;;5064889;28;20436;-65
2023/04/28 04:19:15;;;;;;;11.63;8.23;;;2.50;6.40;;;;;;5053180;28;20210;-66
2023/04/28 04:21:40;;;;;;;19.27;9.53;;;2.50;11.20;;;;;;5060937;28;20170;-67
2023/04/28 04:24:06;;;;;;;11.37;7.97;;;2.50;17.90;;;;;;5079057;28;20205;-68
2023/04/28 04:26:32;;;;;;;13.53;7.57;;;2.60;21.60;;;;;;5069125;28;20190;-68
2023/04/28 04:28:57;;;;;;;12.00;7.63;;;2.60;22.70;;;;;;5051847;28;20429;-66
2023/04/28 04:31:23;;;;;;;10.40;7.87;;;2.60;26.70;;;;;;5041524;28;20202;-66
2023/04/28 04:33:49;;;;;;;12.53;9.07;;;2.70;28.20;;;;;;5067311;28;20243;-68
2023/04/28 04:36:15;;;;;;;15.93;9.50;;;2.70;37.40;;;;;;5059781;28;20265;-66
2023/04/28 04:38:40;;;;;;;15.30;9.40;;;2.70;40.00;;;;;;5054962;28;20167;-68
2023/04/28 04:41:06;;;;;;;10.43;7.30;;;2.80;44.00;;;;;;5070252;28;20244;-68
2023/04/28 04:43:32;;;;;;;10.50;7.30;;;2.80;50.30;;;;;;5054456;28;20295;-68
2023/04/28 04:45:58;;;;;;;18.07;9.20;;;2.80;57.00;;;;;;5065669;28;20511;-68
2023/04/28 04:48:24;;;;;;;13.30;9.97;;;2.90;60.30;;;;;;5051750;28;20559;-68
2023/04/28 04:50:49;;;;;;;14.20;9.80;;;2.90;63.60;;;;;;5088787;28;20455;-65
2023/04/28 04:53:15;;;;;;;12.40;9.50;;;2.90;70.80;;;;;;5068932;28;20718;-63
2023/04/28 04:55:43;;;;;;;14.50;9.50;;;2.90;74.80;;;;;;5062465;28;20586;-66
2023/04/28 04:58:09;;;;;;;11.60;9.20;;;3.00;86.80;;;;;;5072755;28;20172;-65
2023/04/28 05:00:36;;;;;;;12.67;8.77;;;3.00;90.00;;;;;;5070349;28;20429;-65
2023/04/28 05:03:02;;;;;;;10.73;8.10;;;3.10;90.20;;;;;;5072393;28;20179;-68
2023/04/28 05:05:28;;;;;;;11.50;7.87;;;3.10;90.10;;;;;;5071591;28;20941;-68
2023/04/28 05:07:54;;;;;;;10.30;7.27;;;3.20;90.10;;;;;;5072454;28;20390;-67
2023/04/28 05:10:20;;;;;;;9.40;6.83;;;3.20;90.10;;;;;;5069429;28;20174;-68
2023/04/28 05:12:45;;;;;;;17.73;8.23;;;3.30;95.50;;;;;;5060536;28;20258;-66
2023/04/28 05:15:11;;;;;;;13.63;7.77;;;3.30;99.90;;;;;;5066134;28;20655;-65
2023/04/28 05:17:37;;;;;;;12.13;7.87;;;3.40;99.90;;;;;;5072223;28;20246;-68
2023/04/28 05:20:03;;;;;;;12.77;7.90;;;3.50;99.90;;;;;;5071876;28;20238;-66
2023/04/28 05:22:30;;;;;;;10.73;7.63;;;3.60;99.90;;;;;;5070785;28;20217;-66
2023/04/28 05:24:55;;;;;;;8.47;7.40;;;3.70;99.90;;;;;;5053234;28;20633;-66
2023/04/28 05:27:21;;;;;;;12.27;9.50;;;3.80;99.90;;;;;;5065385;28;20455;-66
2023/04/28 05:29:47;;;;;;;12.27;9.17;;;3.90;99.90;;;;;;5052437;28;20187;-68
2023/04/28 05:32:12;;;;;;;12.27;7.80;;;3.90;99.90;;;;;;5053333;28;20229;-68
2023/04/28 05:34:38;;;;;;;18.13;10.40;;;4.10;99.90;;;;;;5071916;28;20250;-67
2023/04/28 05:37:04;;;;;;;18.30;9.43;;;4.10;99.90;;;;;;5072691;28;20258;-68
2023/04/28 05:39:30;;;;;;;16.60;10.67;;;4.20;99.90;;;;;;5075338;28;20197;-67
2023/04/28 05:41:57;;;;;;;16.37;10.93;;;4.30;99.90;;;;;;5074400;28;20957;-69
2023/04/28 05:44:23;;;;;;;22.57;11.43;;;4.40;99.90;;;;;;5075430;28;20160;-68
2023/04/28 05:46:48;;;;;;;13.33;9.83;;;4.50;99.90;;;;;;5062590;28;20420;-69
2023/04/28 05:49:14;;;;;;;27.93;13.87;;;4.60;99.90;;;;;;5056514;28;20179;-69
2023/04/28 05:51:40;;;;;;;28.50;19.43;;;4.70;99.90;;;;;;5062668;28;20586;-67
2023/04/28 05:54:06;;;;;;;24.53;14.37;;;4.80;99.90;;;;;;5071919;28;20434;-68
2023/04/28 05:56:32;;;;;;;16.80;10.90;;;4.90;99.90;;;;;;5071738;28;20178;-68
2023/04/28 05:58:59;;;;;;;23.93;12.30;;;5.10;99.90;;;;;;5075736;28;20218;-66
2023/04/28 06:01:25;;;;;;;15.93;12.33;;;5.20;99.90;;;;;;5075674;28;20432;-66
2023/04/28 06:03:52;;;;;;;23.20;12.10;;;5.40;99.90;;;;;;5075591;28;20444;-69
2023/04/28 06:06:18;;;;;;;17.77;11.90;;;5.60;99.90;;;;;;5075055;28;20428;-68
2023/04/28 06:08:45;;;;;;;17.33;11.93;;;5.70;99.90;;;;;;5059078;28;20425;-66
2023/04/28 06:11:11;;;;;;;23.63;12.57;;;5.90;99.90;;;;;;5068197;28;20513;-69
2023/04/28 06:13:36;;;;;;;21.37;13.20;;;6.10;99.90;;;;;;5076441;28;20542;-68
2023/04/28 06:16:02;;;;;;;20.07;11.40;;;6.20;99.90;;;;;;5075475;28;20883;-69
2023/04/28 06:18:31;;;;;;;21.23;12.80;;;6.30;99.90;;;;;;5065273;28;20509;-67
2023/04/28 06:20:57;;;;;;;19.37;11.63;;;6.50;99.90;;;;;;5074509;28;20417;-69
2023/04/28 06:23:22;;;;;;;24.07;13.97;;;6.60;99.90;;;;;;5073566;28;21058;-69
2023/04/28 06:25:48;;;;;;;18.07;11.70;;;6.80;99.90;;;;;;5073455;28;20182;-69
2023/04/28 06:28:14;;;;;;;17.83;13.90;;;6.90;99.90;;;;;;5075150;28;20170;-67
2023/04/28 06:30:40;;;;;;;17.70;12.77;;;7.00;99.90;;;;;;5073674;28;20261;-69
2023/04/28 06:33:06;;;;;;;21.57;13.50;;;7.00;91.40;;;;;;5075460;28;20582;-67
2023/04/28 06:35:35;;;;;;;21.60;13.73;;;7.10;91.40;;;;;;5073564;28;20533;-69
2023/04/28 06:38:02;;;;;;;16.43;11.23;;;7.20;65.10;;;;;;5074299;28;20519;-67
2023/04/28 06:40:30;;;;;;;16.53;11.67;;;7.20;52.90;;;;;;5072646;28;20936;-66
2023/04/28 06:42:56;;;;;;;16.77;12.27;;;7.30;46.40;;;;;;5074735;28;20448;-70
2023/04/28 06:45:22;;;;;;;17.73;10.60;;;7.30;39.60;;;;;;5075162;28;20397;-70
2023/04/28 06:47:47;;;;;;;16.27;11.00;;;7.40;30.20;;;;;;5073440;28;20179;-66
2023/04/28 06:50:13;;;;;;;14.67;11.27;;;7.40;15.20;;;;;;5073565;28;20178;-69
2023/04/28 06:52:39;;;;;;;13.03;10.00;;;7.40;10.80;;;;;;5073984;28;20457;-67
2023/04/28 06:55:08;;;;;;;11.70;9.70;;;7.40;3.80;;;;;;5074462;28;20163;-69
2023/04/28 06:57:34;;;;;;;16.93;10.80;;;7.40;1.00;;;;;;5074738;28;20170;-67
2023/04/28 07:00:00;;;;;;;19.23;9.87;;;7.30;1.00;;;;;;5072267;28;20551;-67
2023/04/28 07:02:26;;;;;;;12.80;8.73;;;7.30;1.00;;;;;;5071734;28;20535;-70
2023/04/28 07:04:51;;;;;;;13.67;10.10;;;7.30;1.00;;;;;;5074393;28;20515;-66
2023/04/28 07:07:17;;;;;;;14.17;9.57;;;7.50;1.00;;;;;;5073616;28;20209;-66
2023/04/28 07:09:43;;;;;;;14.40;10.00;;;7.60;1.00;;;;;;5073743;28;20178;-67
2023/04/28 07:12:09;;;;;;;15.37;11.10;;;7.60;1.00;;;;;;5074356;28;20229;-67
2023/04/28 07:14:34;;;;;;;12.00;8.90;;;7.80;1.00;;;;;;5073975;28;20180;-70
2023/04/28 07:17:00;;;;;;;16.63;11.20;;;7.80;1.00;;;;;;5074117;28;20396;-67
2023/04/28 07:19:26;;;;;;;12.63;10.00;;;8.00;1.00;;;;;;5074525;28;20523;-70
2023/04/28 07:21:51;;;;;;;11.17;8.63;;;8.10;1.00;;;;;;5071672;28;20228;-69
2023/04/28 07:24:17;;;;;;;12.10;8.37;;;8.20;1.00;;;;;;5074135;28;20170;-67
2023/04/28 07:26:43;;;;;;;12.27;9.33;;;8.40;1.00;;;;;;5074224;28;20175;-70
2023/04/28 07:29:10;;;;;;;13.00;9.83;;;8.40;1.00;;;;;;5074023;28;20167;-67
2023/04/28 07:31:36;;;;;;;16.30;9.63;;;8.60;1.00;;;;;;5072741;28;20209;-68
2023/04/28 07:34:01;;;;;;;9.93;7.70;;;8.70;1.00;;;;;;5072417;28;20459;-70
2023/04/28 07:36:27;;;;;;;12.43;9.30;;;8.70;1.00;;;;;;5073275;28;20237;-69
2023/04/28 07:38:53;;;;;;;16.40;8.90;;;8.80;1.00;;;;;;5073948;28;20202;-68
2023/04/28 07:41:18;;;;;;;11.30;8.67;;;8.90;1.00;;;;;;5072844;28;20183;-70
2023/04/28 07:43:44;;;;;;;10.67;7.53;;;8.90;1.00;;;;;;5055547;28;20203;-70
2023/04/28 07:46:11;;;;;;;10.20;6.93;;;9.10;1.00;;;;;;5074122;28;20636;-67
2023/04/28 07:48:37;;;;;;;12.73;7.87;;;9.20;1.00;;;;;;5072960;28;20191;-67
2023/04/28 07:51:03;;;;;;;10.20;8.00;;;9.30;1.00;;;;;;5054570;28;20440;-67
2023/04/28 07:53:29;;;;;;;8.07;6.87;;;9.50;1.00;;;;;;5074470;28;20193;-67
2023/04/28 07:55:55;;;;;;;6.87;6.23;;;9.60;1.00;;;;;;5073465;28;20170;-70
2023/04/28 07:58:20;;;;;;;8.13;5.90;;;9.70;1.00;;;;;;5074703;28;20582;-70
2023/04/28 08:00:46;;;;;;;6.77;6.17;;;9.70;1.00;;;;;;5068778;28;20175;-67
2023/04/28 08:03:12;;;;;;;7.20;6.50;;;9.90;1.00;;;;;;5073393;28;20194;-67
2023/04/28 08:05:38;;;;;;;8.90;6.03;;;10.10;1.00;;;;;;5071794;28;20188;-70
2023/04/28 08:08:04;;;;;;;7.00;5.33;;;10.30;1.00;;;;;;5073561;28;20228;-70
2023/04/28 08:10:30;;;;;;;7.23;5.43;;;10.50;1.00;;;;;;5072381;28;20737;-70
2023/04/28 08:12:55;;;;;;;6.80;5.77;;;10.50;1.00;;;;;;5086121;28;20459;-68
2023/04/28 08:15:21;;;;;;;5.30;4.70;;;10.60;1.00;;;;;;5088967;28;20639;-70
2023/04/28 08:17:47;;;;;;;6.10;5.23;;;10.60;1.00;;;;;;5065557;28;20166;-68
2023/04/28 08:20:18;;;;;;;5.53;4.93;;;10.80;1.00;;;;;;5068732;28;20201;-68
2023/04/28 08:22:44;;;;;;;5.10;4.70;;;10.80;1.00;;;;;;5072811;28;20625;-67
2023/04/28 08:25:10;;;;;;;5.40;4.90;;;11.10;1.00;;;;;;5071421;28;20440;-70
2023/04/28 08:27:38;;;;;;;6.83;4.20;;;11.40;1.00;;;;;;5077690;28;20411;-68
2023/04/28 08:30:07;;;;;;;3.90;3.60;;;11.60;1.00;;;;;;5075468;28;20181;-69
2023/04/28 08:32:32;;;;;;;5.27;4.50;;;11.60;1.00;;;;;;5070755;28;20437;-70
2023/04/28 08:34:59;;;;;;;4.20;3.77;;;11.80;1.00;;;;;;5076501;28;20411;-68
2023/04/28 08:37:26;;;;;;;5.60;3.90;;;11.90;1.00;;;;;;5071877;28;20182;-70
2023/04/28 08:40:00;;;;;;;4.73;4.27;;;11.90;1.00;;;;;;5088885;28;20421;-70
2023/04/28 08:42:29;;;;;;;5.03;3.93;;;12.00;1.00;;;;;;5085198;28;20418;-69
2023/04/28 08:44:58;;;;;;;3.77;3.43;;;12.10;1.00;;;;;;5072665;28;20383;-68
2023/04/28 08:47:32;;;;;;;3.80;3.00;;;12.20;1.00;;;;;;5072202;28;20803;-68
2023/04/28 08:50:05;;;;;;;3.60;3.30;;;12.30;1.00;;;;;;5069810;28;20922;-69
2023/04/28 08:52:55;;;;;;;6.50;4.13;;;12.40;1.00;;;;;;5075838;28;20940;-70
2023/04/28 08:55:22;;;;;;;3.57;3.27;;;12.70;1.00;;;;;;5053706;28;20391;-70
2023/04/28 08:58:07;;;;;;;3.47;3.20;;;13.00;1.00;;;;;;5042295;28;20436;-68
2023/04/28 09:00:36;;;;;;;4.73;3.27;;;13.20;1.00;;;;;;5068439;28;20413;-69
2023/04/28 09:03:05;;;;;;;4.30;3.90;;;13.30;1.00;;;;;;5070188;28;20448;-69
2023/04/28 09:05:31;;;;;;;4.00;3.10;;;13.30;1.00;;;;;;5069898;28;20459;-69
2023/04/28 09:08:04;;;;;;;4.03;3.53;;;13.50;1.00;;;;;;5073150;28;20432;-69
2023/04/28 09:10:30;;;;;;;5.10;3.20;;;13.50;1.00;;;;;;5069613;28;20411;-69
2023/04/28 09:12:56;;;;;;;3.87;3.57;;;13.60;1.00;;;;;;5053785;28;20509;-69
2023/04/28 09:15:26;;;;;;;4.63;3.20;;;13.60;1.00;;;;;;5073508;28;20166;-70
2023/04/28 09:18:05;;;;;;;4.27;3.83;;;13.80;1.00;;;;;;5076397;28;20442;-69
2023/04/28 09:20:33;;;;;;;3.50;3.20;;;13.90;1.00;;;;;;5074876;28;20962;-70
2023/04/28 09:23:40;;;;;;;5.53;3.07;;;14.00;99.90;;;;;;5074040;28;20448;-69
2023/04/28 09:26:06;;;;;;;4.53;2.70;;;14.20;99.90;;;;;;5075778;28;20928;-69
2023/04/28 09:28:34;;;;;;;5.10;3.60;;;14.30;99.90;;;;;;5076063;28;20407;-71
2023/04/28 09:31:00;;;;;;;3.20;2.90;;;14.50;99.90;;;;;;5075158;28;20447;-71
2023/04/28 09:37:14;;;;;;;3.93;3.07;;;15.00;99.90;;;;;;5072407;28;20974;-68
2023/04/28 09:39:40;;;;;;;3.73;3.13;;;15.30;99.90;;;;;;5074943;28;20404;-69
2023/04/28 09:42:06;;;;;;;3.07;2.30;;;15.50;99.90;;;;;;5054804;28;20431;-71
2023/04/28 09:44:32;;;;;;;2.67;2.10;;;15.60;99.90;;;;;;5072885;28;20231;-70
2023/04/28 09:46:58;;;;;;;4.17;2.90;;;16.00;99.90;;;;;;5057774;28;20413;-71
2023/04/28 09:49:54;;;;;;;3.20;2.50;;;16.20;99.90;;;;;;5075607;28;20166;-71
2023/04/28 09:52:21;;;;;;;4.67;2.60;;;16.40;99.90;;;;;;5074588;28;20209;-70
2023/04/28 09:57:39;;;;;;;5.80;3.70;;;16.80;99.90;;;;;;5063377;28;20896;-72
2023/04/28 10:00:07;;;;;;;8.13;2.83;;;16.70;99.90;;;;;;5078129;28;20500;-70
2023/04/28 10:02:35;;;;;;;8.43;2.60;;;16.90;99.90;;;;;;5080186;28;20792;-70
2023/04/28 10:05:07;;;;;;;3.17;2.70;;;16.90;99.90;;;;;;5074407;28;20875;-71
2023/04/28 10:07:34;;;;;;;8.50;2.20;;;17.30;99.90;;;;;;5075117;28;20511;-70
2023/04/28 10:10:02;;;;;;;2.20;2.00;;;17.50;99.90;;;;;;5074899;28;20413;-70
2023/04/28 10:12:28;;;;;;;2.90;2.70;;;17.90;99.90;;;;;;5074576;28;20956;-71
2023/04/28 10:14:55;;;;;;;3.30;2.50;;;18.00;99.90;;;;;;5074565;28;20431;-69
2023/04/28 10:17:24;;;;;;;6.43;3.03;;;18.30;99.90;;;;;;5075017;28;20635;-71
2023/04/28 10:19:52;;;;;;;3.63;2.60;;;18.40;99.90;;;;;;5082596;28;20404;-71
2023/04/28 10:22:43;;;;;;;2.83;2.60;;;18.10;99.90;;;;;;5073533;28;20475;-72
2023/04/28 10:25:26;;;;;;;5.73;3.00;;;18.00;99.90;;;;;;5073598;28;20421;-72
2023/04/28 10:27:52;;;;;;;7.43;4.10;;;17.90;99.90;;;;;;5057139;28;20436;-71
2023/04/28 10:30:21;;;;;;;3.60;3.30;;;17.50;99.90;;;;;;5056182;28;20416;-71
2023/04/28 10:32:47;;;;;;;6.43;3.03;;;17.00;99.90;;;;;;5056584;28;20521;-70
2023/04/28 10:35:57;;;;;;;6.90;3.00;;;16.80;99.90;;;;;;5080616;28;20458;-70
2023/04/28 10:38:23;;;;;;;4.07;3.77;;;16.60;99.90;;;;;;5083734;28;20973;-70
2023/04/28 10:41:02;;;;;;;2.90;2.70;;;16.60;99.90;;;;;;5093768;28;20403;-71
2023/04/28 10:43:29;;;;;;;5.00;3.63;;;16.60;99.90;;;;;;5090156;28;20448;-71
2023/04/28 10:46:01;;;;;;;3.73;3.40;;;16.90;99.90;;;;;;5074453;28;20405;-70
2023/04/28 10:49:22;;;;;;;3.30;3.00;;;17.10;99.90;;;;;;5074593;28;20428;-71
2023/04/28 10:51:50;;;;;;;5.30;3.00;;;17.50;99.90;;;;;;5074009;28;20497;-71
2023/04/28 10:54:18;;;;;;;5.73;3.40;;;17.40;99.90;;;;;;5074383;28;20523;-71
2023/04/28 10:57:18;;;;;;;7.03;4.23;;;17.60;99.90;;;;;;5072636;28;20439;-72
2023/04/28 10:59:44;;;;;;;3.40;3.10;;;17.50;99.90;;;;;;5065823;28;20393;-71
2023/04/28 11:05:35;;;;;;;5.43;3.17;;;17.90;99.90;;;;;;5053946;28;20268;-71
2023/04/28 11:08:29;;;;;;;4.30;3.20;;;17.90;99.90;;;;;;5053895;28;20813;-71
2023/04/28 11:11:15;;;;;;;4.07;3.17;;;18.10;99.90;;;;;;5052692;28;20404;-70
2023/04/28 11:13:42;;;;;;;3.50;3.20;;;18.30;99.90;;;;;;5053641;28;20424;-70
2023/04/28 11:16:08;;;;;;;4.80;3.20;;;18.30;99.90;;;;;;5061300;28;20470;-71
2023/04/28 11:18:58;;;;;;;4.30;3.07;;;18.20;99.90;;;;;;5073891;28;20393;-71
2023/04/28 11:21:27;;;;;;;4.17;2.90;;;18.10;99.90;;;;;;5043209;28;20875;-71
2023/04/28 11:23:53;;;;;;;3.90;3.23;;;18.00;99.90;;;;;;5073683;28;20486;-71
2023/04/28 11:26:29;;;;;;;3.90;3.50;;;17.80;99.90;;;;;;5056369;28;20785;-71
2023/04/28 11:28:57;;;;;;;3.00;2.80;;;17.70;99.90;;;;;;5073056;28;20417;-70
2023/04/28 11:31:25;;;;;;;3.80;3.13;;;17.70;99.90;;;;;;5054617;28;20510;-72
2023/04/28 11:33:57;;;;;;;8.47;3.80;;;18.00;99.90;;;;;;5073062;28;20504;-70
2023/04/28 11:36:31;;;;;;;5.07;3.10;;;18.40;99.90;;;;;;5056219;28;20444;-71
2023/04/28 11:38:58;;;;;;;3.23;2.60;;;18.50;99.90;;;;;;5073416;28;20765;-71
2023/04/28 11:41:25;;;;;;;3.60;3.03;;;18.80;99.90;;;;;;5072535;28;20501;-72
2023/04/28 11:43:52;;;;;;;4.70;2.93;;;19.00;99.90;;;;;;5073925;28;20456;-72
2023/04/28 11:46:23;;;;;;;4.03;3.40;;;18.80;99.90;;;;;;5070780;28;20424;-71
2023/04/28 11:49:00;;;;;;;6.90;4.00;;;18.70;99.90;;;;;;5064031;28;20437;-72
2023/04/28 11:51:31;;;;;;;5.63;3.23;;;18.40;99.90;;;;;;5072278;28;20444;-71
2023/04/28 11:54:01;;;;;;;6.00;3.33;;;18.50;99.90;;;;;;5072071;28;20523;-70
2023/04/28 11:56:28;;;;;;;9.73;4.13;;;18.50;99.90;;;;;;5073195;28;20420;-71
2023/04/28 11:59:04;;;;;;;5.73;3.47;;;18.30;99.90;;;;;;5073155;28;20392;-72
2023/04/28 12:01:32;;;;;;;5.53;3.63;;;18.20;99.90;;;;;;5072790;28;20939;-71
2023/04/28 12:03:58;;;;;;;4.57;3.70;;;18.20;99.90;;;;;;5071640;28;20483;-71
2023/04/28 12:06:23;;;;;;;3.50;3.20;;;18.40;99.90;;;;;;5054929;28;20416;-71
2023/04/28 12:08:51;;;;;;;3.00;2.80;;;18.80;99.90;;;;;;5073022;28;20408;-71
2023/04/28 12:11:17;;;;;;;4.17;3.27;;;19.50;99.90;;;;;;5072084;28;20197;-70
2023/04/28 12:14:01;;;;;;;4.87;3.30;;;19.90;99.90;;;;;;5071852;28;20450;-71
2023/04/28 12:19:51;;;;;;;6.17;3.97;;;19.80;99.90;;;;;;4972098;28;20409;-71
2023/04/28 12:22:17;;;;;;;3.13;2.63;;;19.70;99.90;;;;;;4955468;28;20433;-71
2023/04/28 12:24:44;;;;;;;3.30;2.60;;;19.20;99.90;;;;;;5047658;28;20439;-71
2023/04/28 12:27:24;;;;;;;3.20;2.90;;;18.70;99.90;;;;;;5071884;28;20169;-71
2023/04/28 12:29:50;;;;;;;4.40;3.40;;;18.30;99.90;;;;;;5070418;28;20828;-71
2023/04/28 12:32:19;;;;;;;6.30;4.20;;;18.10;99.90;;;;;;5072029;28;20452;-71
2023/04/28 12:34:45;;;;;;;4.60;3.70;;;17.90;99.90;;;;;;5084634;28;20408;-71
2023/04/28 12:37:12;;;;;;;3.33;3.03;;;18.00;99.90;;;;;;5092961;28;20403;-71
2023/04/28 12:39:39;;;;;;;6.70;4.20;;;18.40;99.90;;;;;;5077890;28;21046;-71
2023/04/28 12:42:06;;;;;;;10.40;3.30;;;18.70;99.90;;;;;;5070490;28;20490;-71
2023/04/28 12:44:37;;;;;;;4.27;3.30;;;18.70;99.90;;;;;;5072671;28;20491;-71
2023/04/28 12:47:07;;;;;;;9.00;4.80;;;18.80;99.90;;;;;;5057832;28;20905;-72
2023/04/28 12:50:20;;;;;;;14.03;5.00;;;18.50;99.90;;;;;;5075072;28;20455;-71
2023/04/28 12:52:46;;;;;;;5.33;3.63;;;18.40;99.90;;;;;;5075720;28;20460;-71
2023/04/28 12:55:12;;;;;;;7.90;4.40;;;18.10;99.90;;;;;;5094926;28;20411;-71
2023/04/28 12:57:38;;;;;;;3.40;3.00;;;17.90;99.90;;;;;;5090869;28;20419;-71
2023/04/28 13:00:15;;;;;;;8.13;3.97;;;17.70;99.90;;;;;;5075464;28;20404;-70
2023/04/28 13:03:00;;;;;;;10.30;3.43;;;17.50;99.90;;;;;;5075466;28;20542;-70
2023/04/28 13:06:28;;;;;;;;;;;;;;;;;;;;;
2023/04/28 13:11:59;;;;;;;4.27;3.67;;;17.10;99.90;;;;;;5050433;28;21005;-71
2023/04/28 13:14:26;;;;;;;6.00;3.50;;;16.90;99.90;;;;;;5076392;28;20943;-71
2023/04/28 13:16:52;;;;;;;4.53;3.80;;;16.70;99.90;;;;;;5075035;28;20174;-71